Time;durP1;ratioP1;P1;durP2;ratioP2;P2;SDS_P1;SDS_P2;PMS_P1;PMS_P2;Temp;Humidity;BMP_temperature;BMP_pressure;BME280_temperature;BME280_humidity;BME280_pressure;Samples;Min_cycle;Max_cycle;Signal;HPM_P1;HPM_P2
2022/06/29 00:01:18;;;;;;;5.53;1.10;;;18.70;99.90;;;;;;5034574;28;20026;-57
2022/06/29 00:03:45;;;;;;;4.28;1.58;;;18.60;99.90;;;;;;5035696;28;20369;-56
2022/06/29 00:06:11;;;;;;;2.83;1.10;;;18.50;99.90;;;;;;5034305;28;20041;-56
2022/06/29 00:08:36;;;;;;;3.00;1.40;;;18.40;99.90;;;;;;5034196;28;20033;-56
2022/06/29 00:11:03;;;;;;;3.22;1.35;;;18.40;99.90;;;;;;5034246;28;20036;-55
2022/06/29 00:13:33;;;;;;;5.15;1.50;;;18.30;99.90;;;;;;5034230;28;20100;-58
2022/06/29 00:16:00;;;;;;;5.53;1.97;;;18.40;99.90;;;;;;5034285;28;20049;-56
2022/06/29 00:18:26;;;;;;;2.85;1.23;;;18.30;99.90;;;;;;5035383;28;20256;-55
2022/06/29 00:20:52;;;;;;;5.55;1.38;;;18.30;99.90;;;;;;5034074;28;20024;-55
2022/06/29 00:23:17;;;;;;;5.82;1.20;;;18.20;99.90;;;;;;5035264;28;20056;-56
2022/06/29 00:25:43;;;;;;;6.55;1.40;;;18.20;99.90;;;;;;5035333;28;20048;-58
2022/06/29 00:28:08;;;;;;;6.40;1.30;;;18.30;99.90;;;;;;5034338;28;20132;-55
2022/06/29 00:30:34;;;;;;;6.63;1.70;;;18.30;99.90;;;;;;5035042;28;20026;-53
2022/06/29 00:33:00;;;;;;;7.35;1.45;;;18.20;99.90;;;;;;5034180;28;20061;-55
2022/06/29 00:35:25;;;;;;;9.18;2.35;;;18.20;99.90;;;;;;5035122;28;20108;-55
2022/06/29 00:37:51;;;;;;;6.72;1.52;;;18.20;99.90;;;;;;5033110;28;20021;-55
2022/06/29 00:40:16;;;;;;;5.40;1.30;;;18.20;99.90;;;;;;5034560;28;20029;-52
2022/06/29 00:42:42;;;;;;;19.65;1.70;;;18.10;99.90;;;;;;5033586;28;20099;-57
2022/06/29 00:45:08;;;;;;;7.50;1.70;;;18.10;99.90;;;;;;5034837;28;20045;-55
2022/06/29 00:47:34;;;;;;;16.38;1.83;;;18.10;99.90;;;;;;5033771;28;20032;-53
2022/06/29 00:50:00;;;;;;;10.57;1.73;;;18.10;99.90;;;;;;5034313;28;20555;-59
2022/06/29 00:52:28;;;;;;;13.45;2.35;;;18.10;99.90;;;;;;5034811;28;20383;-55
2022/06/29 00:55:00;;;;;;;8.40;1.60;;;18.20;99.90;;;;;;5033532;28;20033;-55
2022/06/29 00:57:28;;;;;;;14.35;2.03;;;18.10;99.90;;;;;;5033813;28;20041;-58
2022/06/29 00:59:55;;;;;;;6.35;1.75;;;18.20;99.90;;;;;;5034554;28;20055;-57
2022/06/29 01:02:24;;;;;;;10.20;1.77;;;18.20;99.90;;;;;;5033562;28;20025;-55
2022/06/29 01:04:51;;;;;;;22.38;2.13;;;18.20;99.90;;;;;;5033150;28;20487;-51
2022/06/29 01:07:22;;;;;;;11.48;2.05;;;18.30;99.90;;;;;;5034707;28;20029;-52
2022/06/29 01:09:47;;;;;;;6.25;1.40;;;18.30;99.90;;;;;;5032926;28;20029;-53
2022/06/29 01:12:13;;;;;;;4.25;1.27;;;18.30;99.90;;;;;;5034265;28;20033;-54
2022/06/29 01:14:44;;;;;;;5.15;1.60;;;18.30;99.90;;;;;;5033828;28;20021;-54
2022/06/29 01:17:11;;;;;;;13.13;2.13;;;18.40;99.90;;;;;;5032896;28;20071;-51
2022/06/29 01:19:37;;;;;;;7.15;1.20;;;18.40;99.90;;;;;;5034265;28;20020;-55
2022/06/29 01:22:13;;;;;;;11.60;1.85;;;18.40;99.90;;;;;;5034130;28;20025;-55
2022/06/29 01:24:40;;;;;;;7.30;1.48;;;18.40;99.90;;;;;;5034136;28;20029;-55
2022/06/29 01:27:06;;;;;;;9.05;2.25;;;18.50;99.90;;;;;;5032863;28;20029;-52
2022/06/29 01:29:32;;;;;;;4.05;1.67;;;18.40;99.90;;;;;;5033390;28;20025;-55
2022/06/29 01:31:58;;;;;;;7.05;1.40;;;18.50;99.90;;;;;;5033756;28;20021;-55
2022/06/29 01:34:25;;;;;;;8.07;1.58;;;18.50;99.90;;;;;;5032666;28;20054;-55
2022/06/29 01:36:51;;;;;;;7.97;1.50;;;18.50;99.90;;;;;;5033794;28;20056;-54
2022/06/29 01:39:17;;;;;;;10.05;1.52;;;18.50;99.90;;;;;;5032896;28;20072;-53
2022/06/29 01:41:43;;;;;;;5.15;1.70;;;18.50;99.90;;;;;;5032903;28;20029;-55
2022/06/29 01:44:08;;;;;;;11.15;2.72;;;18.50;99.90;;;;;;5032731;28;20040;-56
2022/06/29 01:46:34;;;;;;;10.65;1.98;;;18.50;99.90;;;;;;5032633;28;20025;-56
2022/06/29 01:49:00;;;;;;;10.40;1.52;;;18.40;99.90;;;;;;5032819;28;20025;-55
2022/06/29 01:51:26;;;;;;;16.70;2.95;;;18.40;99.90;;;;;;5032296;28;20022;-57
2022/06/29 01:53:51;;;;;;;7.32;2.05;;;18.40;99.90;;;;;;5033557;28;20028;-56
2022/06/29 01:56:17;;;;;;;8.30;1.77;;;18.40;99.90;;;;;;5032317;28;20022;-55
2022/06/29 01:58:43;;;;;;;12.88;2.00;;;18.40;99.90;;;;;;5033783;28;20014;-57
2022/06/29 02:01:09;;;;;;;4.65;2.13;;;18.50;99.90;;;;;;5033645;28;20030;-58
2022/06/29 02:03:35;;;;;;;7.60;1.73;;;18.40;99.90;;;;;;5032195;28;20025;-57
2022/06/29 02:06:02;;;;;;;6.10;1.90;;;18.40;99.90;;;;;;5033020;28;20044;-54
2022/06/29 02:08:27;;;;;;;7.40;1.58;;;18.40;99.90;;;;;;5033263;28;20022;-55
2022/06/29 02:10:53;;;;;;;2.72;1.60;;;18.50;99.90;;;;;;5033143;28;20088;-59
2022/06/29 02:13:19;;;;;;;7.57;1.60;;;18.50;99.90;;;;;;5032331;28;20022;-55
2022/06/29 02:15:44;;;;;;;9.55;1.75;;;18.40;99.90;;;;;;5032385;28;20488;-57
2022/06/29 02:18:10;;;;;;;3.75;1.40;;;18.40;99.90;;;;;;5032261;28;20116;-56
2022/06/29 02:20:35;;;;;;;4.05;1.30;;;18.40;99.90;;;;;;5033182;28;20072;-58
2022/06/29 02:23:01;;;;;;;6.90;1.60;;;18.40;99.90;;;;;;5033130;28;20021;-58
2022/06/29 02:25:27;;;;;;;4.70;1.38;;;18.40;99.90;;;;;;5033147;28;20099;-56
2022/06/29 02:27:52;;;;;;;3.03;1.33;;;18.50;99.90;;;;;;5031909;28;20029;-59
2022/06/29 02:30:18;;;;;;;10.30;1.80;;;18.50;99.90;;;;;;5031802;28;20033;-57
2022/06/29 02:35:29;;;;;;;7.80;1.88;;;18.50;99.90;;;;;;5033454;28;20056;-58
2022/06/29 02:37:55;;;;;;;15.95;2.53;;;18.50;99.90;;;;;;5033071;28;20392;-56
2022/06/29 02:40:21;;;;;;;15.32;3.00;;;18.40;99.90;;;;;;5031739;28;20027;-56
2022/06/29 02:42:47;;;;;;;18.65;2.20;;;18.50;99.90;;;;;;5031749;28;20032;-58
2022/06/29 02:45:13;;;;;;;16.48;2.30;;;18.50;99.90;;;;;;5032103;28;20061;-54
2022/06/29 02:47:39;;;;;;;9.60;2.08;;;18.60;99.90;;;;;;5033201;28;20061;-56
2022/06/29 02:50:05;;;;;;;13.63;3.05;;;18.60;99.90;;;;;;5032859;28;20033;-57
2022/06/29 02:52:30;;;;;;;24.10;4.55;;;18.60;99.90;;;;;;5031663;28;20030;-56
2022/06/29 02:54:56;;;;;;;13.27;3.08;;;18.60;99.90;;;;;;5032933;28;20116;-57
2022/06/29 02:57:24;;;;;;;13.35;2.80;;;18.50;99.90;;;;;;5031932;28;20022;-52
2022/06/29 02:59:50;;;;;;;10.15;2.15;;;18.50;99.90;;;;;;5034015;28;20021;-58
2022/06/29 03:02:16;;;;;;;7.20;1.60;;;18.50;99.90;;;;;;5035553;28;20032;-54
2022/06/29 03:04:41;;;;;;;7.22;1.95;;;18.50;99.90;;;;;;5036569;28;20033;-56
2022/06/29 03:07:07;;;;;;;13.70;2.25;;;18.60;99.90;;;;;;5036650;28;20036;-55
2022/06/29 03:09:32;;;;;;;4.80;1.80;;;18.70;99.90;;;;;;5035218;28;20146;-57
2022/06/29 03:11:58;;;;;;;10.57;1.73;;;18.60;99.90;;;;;;5036466;28;20096;-55
2022/06/29 03:14:24;;;;;;;8.50;1.77;;;18.60;99.90;;;;;;5035195;28;20051;-54
2022/06/29 03:16:50;;;;;;;7.75;1.63;;;18.60;99.90;;;;;;5035277;28;20018;-55
2022/06/29 03:19:15;;;;;;;9.82;2.55;;;18.60;99.90;;;;;;5036324;28;20018;-59
2022/06/29 03:21:41;;;;;;;9.38;1.88;;;18.60;99.90;;;;;;5035047;28;20033;-59
2022/06/29 03:24:07;;;;;;;11.88;1.83;;;18.60;99.90;;;;;;5035143;28;20021;-60
2022/06/29 03:26:32;;;;;;;9.35;1.75;;;18.70;99.90;;;;;;5034982;28;20100;-55
2022/06/29 03:28:58;;;;;;;12.30;2.33;;;18.50;99.90;;;;;;5035320;28;20037;-52
2022/06/29 03:31:23;;;;;;;12.13;2.05;;;18.50;99.90;;;;;;5036109;28;20361;-53
2022/06/29 03:33:49;;;;;;;13.43;2.03;;;18.50;99.90;;;;;;5035297;28;20036;-55
2022/06/29 03:36:15;;;;;;;11.50;1.67;;;18.50;99.90;;;;;;5034933;28;20036;-56
2022/06/29 03:38:41;;;;;;;10.73;1.65;;;18.50;99.90;;;;;;5034776;28;20025;-54
2022/06/29 03:41:07;;;;;;;6.75;1.50;;;18.60;99.90;;;;;;5034849;28;20025;-56
2022/06/29 03:43:32;;;;;;;13.02;1.63;;;18.60;99.90;;;;;;5036032;28;20060;-55
2022/06/29 03:45:58;;;;;;;7.32;1.98;;;18.70;99.90;;;;;;5034738;28;20028;-56
2022/06/29 03:48:24;;;;;;;9.73;1.67;;;18.70;99.90;;;;;;5034656;28;20025;-55
2022/06/29 03:50:50;;;;;;;14.30;1.95;;;18.80;99.90;;;;;;5035777;28;20022;-54
2022/06/29 03:53:16;;;;;;;8.20;2.10;;;18.80;99.90;;;;;;5034623;28;20121;-52
2022/06/29 03:55:42;;;;;;;11.93;2.30;;;18.80;99.90;;;;;;5034577;28;20025;-55
2022/06/29 03:58:07;;;;;;;13.48;2.42;;;18.80;99.90;;;;;;5035154;28;20029;-57
2022/06/29 04:00:33;;;;;;;11.32;2.10;;;18.80;99.90;;;;;;5035069;28;20032;-54
2022/06/29 04:02:59;;;;;;;7.60;1.88;;;18.90;99.90;;;;;;5035672;28;20029;-56
2022/06/29 04:05:24;;;;;;;8.45;2.08;;;18.90;99.90;;;;;;5034340;28;20036;-54
2022/06/29 04:07:50;;;;;;;11.45;1.90;;;18.90;99.90;;;;;;5035572;28;20028;-55
2022/06/29 04:10:16;;;;;;;7.88;1.77;;;18.90;99.90;;;;;;5034152;28;20037;-57
2022/06/29 04:12:41;;;;;;;7.25;1.90;;;18.90;99.90;;;;;;5033198;28;20028;-53
2022/06/29 04:15:08;;;;;;;6.40;1.80;;;18.90;99.90;;;;;;5034067;28;20067;-55
2022/06/29 04:17:34;;;;;;;9.43;1.90;;;18.90;99.90;;;;;;5035645;28;20032;-54
2022/06/29 04:19:59;;;;;;;5.57;1.90;;;18.90;99.90;;;;;;5035322;28;20021;-53
2022/06/29 04:22:25;;;;;;;9.55;1.77;;;18.90;99.90;;;;;;5035277;28;20041;-57
2022/06/29 04:24:51;;;;;;;8.25;2.00;;;18.90;99.90;;;;;;5035527;28;20033;-52
2022/06/29 04:27:17;;;;;;;10.80;2.08;;;18.90;99.90;;;;;;5035472;28;20026;-53
2022/06/29 04:29:43;;;;;;;4.53;1.88;;;19.00;99.90;;;;;;5035080;28;20026;-55
2022/06/29 04:32:09;;;;;;;5.00;1.50;;;19.10;99.90;;;;;;5033791;28;20032;-54
2022/06/29 04:34:35;;;;;;;4.30;1.50;;;19.10;99.90;;;;;;5035368;28;20025;-53
2022/06/29 04:37:00;;;;;;;9.10;1.73;;;19.10;99.90;;;;;;5035578;28;20029;-52
2022/06/29 04:39:26;;;;;;;5.20;1.98;;;19.20;99.90;;;;;;5035548;28;20544;-55
2022/06/29 04:41:52;;;;;;;5.40;1.70;;;19.30;99.90;;;;;;5035058;28;20021;-58
2022/06/29 04:44:18;;;;;;;5.03;1.60;;;19.40;99.90;;;;;;5033945;28;20029;-54
2022/06/29 04:46:44;;;;;;;6.22;1.67;;;19.40;99.90;;;;;;5035278;28;20025;-53
2022/06/29 04:49:09;;;;;;;3.38;1.52;;;19.40;99.90;;;;;;5034612;28;20043;-55
2022/06/29 04:51:35;;;;;;;3.78;1.40;;;19.40;99.90;;;;;;5034071;28;20030;-55
2022/06/29 04:54:02;;;;;;;1.55;1.15;;;19.50;99.90;;;;;;5034892;28;20029;-55
2022/06/29 04:56:30;;;;;;;2.40;1.20;;;19.50;99.90;;;;;;5034862;28;20056;-56
2022/06/29 04:58:57;;;;;;;5.07;1.40;;;19.60;99.90;;;;;;5034783;28;20025;-55
2022/06/29 05:01:24;;;;;;;3.90;1.67;;;19.60;99.90;;;;;;5033792;28;20025;-55
2022/06/29 05:03:50;;;;;;;3.00;1.40;;;19.60;99.90;;;;;;5034757;28;20029;-53
2022/06/29 05:06:17;;;;;;;2.47;1.67;;;19.80;99.90;;;;;;5034644;28;20022;-53
2022/06/29 05:08:42;;;;;;;2.08;1.33;;;19.90;99.90;;;;;;5033236;28;20060;-56
2022/06/29 05:11:08;;;;;;;5.15;1.50;;;20.10;99.90;;;;;;5034482;28;20026;-53
2022/06/29 05:13:34;;;;;;;6.60;1.90;;;20.20;99.90;;;;;;5033314;28;20116;-58
2022/06/29 05:16:04;;;;;;;4.22;1.60;;;20.10;99.90;;;;;;5034540;28;20025;-56
2022/06/29 05:18:32;;;;;;;3.15;1.80;;;20.40;99.90;;;;;;5034705;28;20380;-55
2022/06/29 05:20:58;;;;;;;3.00;1.48;;;20.50;99.90;;;;;;5033137;28;20079;-55
2022/06/29 05:23:25;;;;;;;4.30;1.20;;;20.60;99.90;;;;;;5033298;28;20022;-54
2022/06/29 05:25:51;;;;;;;2.25;1.30;;;20.80;99.90;;;;;;5033116;28;20028;-52
2022/06/29 05:28:17;;;;;;;2.13;1.70;;;20.80;99.90;;;;;;5034348;28;20029;-54
2022/06/29 05:30:42;;;;;;;4.22;1.50;;;20.80;99.90;;;;;;5034414;28;20017;-58
2022/06/29 05:33:08;;;;;;;1.98;1.40;;;20.80;99.90;;;;;;5033183;28;20036;-57
2022/06/29 05:35:34;;;;;;;2.42;2.05;;;20.80;99.90;;;;;;5033309;28;20053;-55
2022/06/29 05:38:01;;;;;;;2.88;1.80;;;21.00;99.90;;;;;;5034133;28;20384;-53
2022/06/29 05:40:28;;;;;;;3.78;2.35;;;21.10;99.90;;;;;;5033970;28;20040;-56
2022/06/29 05:42:53;;;;;;;5.40;1.60;;;21.20;99.90;;;;;;5032831;28;20479;-52
2022/06/29 05:45:19;;;;;;;2.35;1.73;;;21.30;99.90;;;;;;5032725;28;20030;-53
2022/06/29 05:47:45;;;;;;;2.85;1.30;;;21.50;99.90;;;;;;5032824;28;20026;-56
2022/06/29 05:50:10;;;;;;;2.78;1.27;;;21.60;99.90;;;;;;5032646;28;20112;-51
2022/06/29 05:52:37;;;;;;;3.60;1.70;;;21.70;99.90;;;;;;5034329;28;20021;-53
2022/06/29 05:55:04;;;;;;;1.75;1.63;;;21.80;99.90;;;;;;5033858;28;20022;-52
2022/06/29 05:57:29;;;;;;;7.25;2.17;;;21.90;99.90;;;;;;5032506;28;20021;-55
2022/06/29 05:59:55;;;;;;;7.00;1.90;;;21.90;99.90;;;;;;5032565;28;20076;-51
2022/06/29 06:02:21;;;;;;;4.80;1.83;;;21.90;99.90;;;;;;5033585;28;20025;-51
2022/06/29 06:04:47;;;;;;;2.08;1.55;;;22.10;99.90;;;;;;5033877;28;20056;-51
2022/06/29 06:07:12;;;;;;;3.45;1.58;;;22.30;99.90;;;;;;5033171;28;20034;-51
2022/06/29 06:09:38;;;;;;;1.95;1.60;;;22.40;99.90;;;;;;5033511;28;20120;-52
2022/06/29 06:12:04;;;;;;;3.83;2.08;;;22.40;99.90;;;;;;5033648;28;20096;-53
2022/06/29 06:14:30;;;;;;;3.45;1.80;;;22.60;99.90;;;;;;5033544;28;20068;-54
2022/06/29 06:16:56;;;;;;;3.20;1.52;;;22.70;99.90;;;;;;5032485;28;20101;-54
2022/06/29 06:19:21;;;;;;;2.50;1.63;;;22.80;99.90;;;;;;5032087;28;20034;-54
2022/06/29 06:21:47;;;;;;;6.10;1.88;;;23.00;99.90;;;;;;5033298;28;20029;-55
2022/06/29 06:24:13;;;;;;;1.60;1.27;;;23.10;99.90;;;;;;5032235;28;20416;-51
2022/06/29 06:26:38;;;;;;;6.80;1.58;;;23.20;99.90;;;;;;5032086;28;20116;-53
2022/06/29 06:29:04;;;;;;;3.85;1.75;;;23.20;99.90;;;;;;5033341;28;20037;-52
2022/06/29 06:31:30;;;;;;;5.05;1.70;;;23.20;99.90;;;;;;5032281;28;20022;-52
2022/06/29 06:33:55;;;;;;;3.33;2.05;;;23.30;99.90;;;;;;5033089;28;20028;-52
2022/06/29 06:36:22;;;;;;;4.50;1.80;;;23.20;99.90;;;;;;5032173;28;20028;-52
2022/06/29 06:38:48;;;;;;;7.47;2.35;;;23.30;99.90;;;;;;5032065;28;20024;-52
2022/06/29 06:41:22;;;;;;;3.88;2.30;;;23.20;99.90;;;;;;5031980;28;20029;-54
2022/06/29 06:43:59;;;;;;;4.60;2.75;;;23.30;99.90;;;;;;5031956;28;20057;-52
2022/06/29 06:46:26;;;;;;;10.00;2.50;;;23.40;99.90;;;;;;5032257;28;20037;-54
2022/06/29 06:48:52;;;;;;;5.57;2.22;;;23.40;99.90;;;;;;5031934;28;20029;-51
2022/06/29 06:51:19;;;;;;;10.23;4.07;;;23.40;99.90;;;;;;5032023;28;20021;-51
2022/06/29 06:53:45;;;;;;;9.18;2.90;;;23.60;99.90;;;;;;5031912;28;20025;-52
2022/06/29 06:56:11;;;;;;;8.02;2.25;;;23.80;99.90;;;;;;5032172;28;20026;-52
2022/06/29 06:58:37;;;;;;;10.00;2.22;;;24.00;99.90;;;;;;5033354;28;20048;-57
2022/06/29 07:01:07;;;;;;;5.05;2.25;;;24.70;99.90;;;;;;5032337;28;20028;-53
2022/06/29 07:03:36;;;;;;;6.50;2.40;;;25.60;99.90;;;;;;5032311;28;20025;-56
2022/06/29 07:06:07;;;;;;;14.20;2.33;;;26.30;99.90;;;;;;5033281;28;20775;-58
2022/06/29 07:08:35;;;;;;;6.55;2.08;;;26.40;99.90;;;;;;5032916;28;20539;-53
2022/06/29 07:11:02;;;;;;;8.23;2.05;;;27.00;99.90;;;;;;5031971;28;20030;-58
2022/06/29 07:13:28;;;;;;;3.03;2.00;;;27.70;99.90;;;;;;5031762;28;20022;-52
2022/06/29 07:15:55;;;;;;;4.70;2.00;;;28.00;99.90;;;;;;5031745;28;20071;-51
2022/06/29 07:18:21;;;;;;;3.28;1.80;;;28.20;99.90;;;;;;5032991;28;20116;-52
2022/06/29 07:20:46;;;;;;;7.32;2.08;;;28.80;99.90;;;;;;5033206;28;20527;-54
2022/06/29 07:23:12;;;;;;;3.70;1.50;;;29.80;97.60;;;;;;5032888;28;20030;-49
2022/06/29 07:25:38;;;;;;;4.43;1.98;;;31.00;96.20;;;;;;5032635;28;20018;-48
2022/06/29 07:28:04;;;;;;;7.25;2.25;;;31.90;92.50;;;;;;5032397;28;20068;-48
2022/06/29 07:30:29;;;;;;;4.95;2.13;;;32.80;90.70;;;;;;5032575;28;20048;-50
2022/06/29 07:32:55;;;;;;;7.85;2.20;;;33.50;86.50;;;;;;5031657;28;20021;-51
2022/06/29 07:35:20;;;;;;;5.40;1.70;;;32.90;86.40;;;;;;5031547;28;20032;-50
2022/06/29 07:37:46;;;;;;;6.30;2.33;;;33.40;85.30;;;;;;5032751;28;20021;-50
2022/06/29 07:40:12;;;;;;;5.40;2.10;;;34.20;82.60;;;;;;5031658;28;20022;-49
2022/06/29 07:42:38;;;;;;;2.45;2.00;;;35.00;79.20;;;;;;5031422;28;20052;-52
2022/06/29 07:45:05;;;;;;;3.78;2.17;;;35.20;79.20;;;;;;5032615;28;20025;-49
2022/06/29 07:47:32;;;;;;;5.18;2.13;;;35.60;73.20;;;;;;5034386;28;20037;-49
2022/06/29 07:49:58;;;;;;;3.17;2.38;;;34.80;75.10;;;;;;5034885;28;20033;-51
2022/06/29 07:52:25;;;;;;;3.88;2.20;;;35.30;72.00;;;;;;5036005;28;20065;-53
2022/06/29 07:54:50;;;;;;;3.40;2.42;;;35.10;74.50;;;;;;5035197;28;20022;-49
2022/06/29 07:57:17;;;;;;;4.63;2.50;;;35.50;72.60;;;;;;5035145;28;20085;-53
2022/06/29 07:59:43;;;;;;;5.15;2.30;;;35.80;69.40;;;;;;5035266;28;20052;-51
2022/06/29 08:02:09;;;;;;;4.85;2.53;;;35.30;70.40;;;;;;5035266;28;20093;-53
2022/06/29 08:04:34;;;;;;;5.45;2.53;;;34.80;69.40;;;;;;5036112;28;20025;-50
2022/06/29 08:07:00;;;;;;;3.15;2.30;;;34.60;70.80;;;;;;5035124;28;20510;-55
2022/06/29 08:09:25;;;;;;;5.70;3.20;;;34.30;71.90;;;;;;5034893;28;20041;-51
2022/06/29 08:11:51;;;;;;;4.38;2.10;;;33.20;71.50;;;;;;5035612;28;20056;-51
2022/06/29 08:14:17;;;;;;;6.28;2.70;;;32.60;75.80;;;;;;5035398;28;20028;-53
2022/06/29 08:16:43;;;;;;;4.00;2.90;;;33.40;74.90;;;;;;5034487;28;20546;-53
2022/06/29 08:19:09;;;;;;;2.67;2.40;;;32.90;73.00;;;;;;5035172;28;20022;-51
2022/06/29 08:21:35;;;;;;;3.30;2.80;;;33.70;73.30;;;;;;5034601;28;20021;-50
2022/06/29 08:24:01;;;;;;;4.80;3.20;;;34.60;72.20;;;;;;5034315;28;20034;-56
2022/06/29 08:26:26;;;;;;;14.85;4.00;;;35.40;69.50;;;;;;5034219;28;20022;-50
2022/06/29 08:28:52;;;;;;;8.65;3.67;;;34.90;70.80;;;;;;5035385;28;20033;-52
2022/06/29 08:31:18;;;;;;;8.75;3.30;;;34.70;71.00;;;;;;5034470;28;20094;-52
2022/06/29 08:33:44;;;;;;;3.60;2.85;;;34.70;71.00;;;;;;5035352;28;20056;-53
2022/06/29 08:36:09;;;;;;;7.15;3.45;;;35.00;71.50;;;;;;5034097;28;20021;-48
2022/06/29 08:38:35;;;;;;;3.55;2.88;;;34.70;71.00;;;;;;5034256;28;20030;-55
2022/06/29 08:41:01;;;;;;;7.45;3.10;;;33.50;72.20;;;;;;5034325;28;20022;-57
2022/06/29 08:43:27;;;;;;;5.25;3.28;;;33.10;74.00;;;;;;5035274;28;20107;-55
2022/06/29 08:45:53;;;;;;;5.03;3.30;;;33.00;74.50;;;;;;5034955;28;20053;-56
2022/06/29 08:48:19;;;;;;;5.63;3.33;;;32.30;74.10;;;;;;5035131;28;20017;-58
2022/06/29 08:50:51;;;;;;;3.67;3.33;;;31.20;76.40;;;;;;5034936;28;20033;-55
2022/06/29 08:53:17;;;;;;;5.03;3.35;;;30.80;78.70;;;;;;5035269;28;20051;-52
2022/06/29 08:55:49;;;;;;;4.07;3.50;;;30.90;78.80;;;;;;5034980;28;20451;-51
2022/06/29 08:58:20;;;;;;;3.38;3.05;;;31.20;78.30;;;;;;5033572;28;20076;-53
2022/06/29 09:00:47;;;;;;;5.65;3.25;;;31.50;78.70;;;;;;5033612;28;20079;-56
2022/06/29 09:03:15;;;;;;;4.90;3.55;;;32.60;78.80;;;;;;5033666;28;20025;-52
2022/06/29 09:05:45;;;;;;;6.57;3.30;;;33.50;76.10;;;;;;5033928;28;20021;-57
2022/06/29 09:08:10;;;;;;;4.60;3.78;;;33.10;76.30;;;;;;5034859;28;20030;-55
2022/06/29 09:10:36;;;;;;;5.53;3.25;;;32.70;78.40;;;;;;5033950;28;20124;-57
2022/06/29 09:13:04;;;;;;;3.70;3.40;;;33.20;77.70;;;;;;5033706;28;20029;-53
2022/06/29 09:15:33;;;;;;;5.13;3.92;;;33.20;76.40;;;;;;5033383;28;20017;-54
2022/06/29 09:18:00;;;;;;;4.38;3.97;;;32.50;77.20;;;;;;5033743;28;20017;-53
2022/06/29 09:20:40;;;;;;;10.50;4.00;;;32.30;77.30;;;;;;5034588;28;20017;-51
2022/06/29 09:23:09;;;;;;;4.15;3.75;;;32.80;77.80;;;;;;5034553;28;20025;-52
2022/06/29 09:25:39;;;;;;;4.45;3.92;;;33.60;76.20;;;;;;5033132;28;20033;-50
2022/06/29 09:28:19;;;;;;;5.65;4.25;;;33.70;74.90;;;;;;5033210;28;20108;-55
2022/06/29 09:30:44;;;;;;;4.13;3.60;;;34.30;74.60;;;;;;5034314;28;20043;-57
2022/06/29 09:33:11;;;;;;;3.78;3.38;;;33.90;75.40;;;;;;5034493;28;20021;-54
2022/06/29 09:35:38;;;;;;;6.18;4.07;;;35.30;74.90;;;;;;5033235;28;20053;-53
2022/06/29 09:38:23;;;;;;;4.60;4.05;;;36.60;71.80;;;;;;5034120;28;20026;-57
2022/06/29 09:41:00;;;;;;;5.47;4.40;;;37.70;70.30;;;;;;5034060;28;20021;-53
2022/06/29 09:43:26;;;;;;;4.22;3.83;;;37.20;69.70;;;;;;5034542;28;20030;-53
2022/06/29 09:45:52;;;;;;;4.60;4.20;;;36.90;70.10;;;;;;5033817;28;20025;-52
2022/06/29 09:48:22;;;;;;;4.80;4.40;;;37.60;68.60;;;;;;5034160;28;20036;-51
2022/06/29 09:50:52;;;;;;;6.57;4.20;;;38.70;68.30;;;;;;5033154;28;20057;-51
2022/06/29 09:53:18;;;;;;;;;;;39.30;68.10;;;;;;5032993;28;20056;-54
2022/06/29 09:55:48;;;;;;;5.32;4.15;;;40.10;66.70;;;;;;5032870;28;19905;-55
2022/06/29 09:58:17;;;;;;;5.70;4.35;;;40.80;65.20;;;;;;5032759;28;20033;-55
2022/06/29 10:03:27;;;;;;;4.57;4.03;;;40.10;62.60;;;;;;5034286;28;20036;-58
2022/06/29 10:05:55;;;;;;;5.65;4.28;;;40.20;64.50;;;;;;5033709;28;20021;-56
2022/06/29 10:08:21;;;;;;;7.22;4.63;;;39.70;63.40;;;;;;5032595;28;20056;-53
2022/06/29 10:11:01;;;;;;;5.47;5.00;;;39.10;64.70;;;;;;5032879;28;20033;-55
2022/06/29 10:13:40;;;;;;;4.95;4.30;;;37.60;64.80;;;;;;5033760;28;20029;-54
2022/06/29 10:16:47;;;;;;;4.80;4.40;;;38.10;67.60;;;;;;5033593;28;20029;-57
2022/06/29 10:19:22;;;;;;;5.50;4.30;;;38.00;65.60;;;;;;5033583;28;20056;-56
2022/06/29 10:21:49;;;;;;;5.38;4.30;;;38.50;65.70;;;;;;5033207;28;20120;-56
2022/06/29 10:24:18;;;;;;;5.18;4.10;;;37.50;68.10;;;;;;5032171;28;20021;-57
2022/06/29 10:26:46;;;;;;;6.47;4.43;;;38.50;65.30;;;;;;5032273;28;20030;-57
2022/06/29 10:29:26;;;;;;;4.60;4.20;;;38.30;64.50;;;;;;5033349;28;20033;-55
2022/06/29 10:32:07;;;;;;;8.02;4.47;;;37.20;66.40;;;;;;5031934;28;20036;-53
2022/06/29 10:34:33;;;;;;;6.30;4.72;;;36.50;67.90;;;;;;5033284;28;20385;-53
2022/06/29 10:37:16;;;;;;;8.95;4.10;;;36.50;69.10;;;;;;5033224;28;20028;-51
2022/06/29 10:39:45;;;;;;;7.30;4.57;;;36.10;68.80;;;;;;5032370;28;20025;-52
2022/06/29 10:45:18;;;;;;;5.47;4.55;;;35.80;69.20;;;;;;5033274;28;20037;-57
2022/06/29 10:47:57;;;;;;;6.75;4.90;;;35.70;71.80;;;;;;5033205;28;20055;-58
2022/06/29 10:50:24;;;;;;;5.65;4.53;;;35.00;69.80;;;;;;5033141;28;20053;-58
2022/06/29 10:52:51;;;;;;;6.78;4.97;;;34.40;72.10;;;;;;5031903;28;20022;-56
2022/06/29 10:55:18;;;;;;;5.53;5.13;;;34.50;72.40;;;;;;5031810;28;20110;-57
2022/06/29 10:57:45;;;;;;;7.15;5.50;;;33.40;72.90;;;;;;5032249;28;20017;-59
2022/06/29 11:00:22;;;;;;;5.75;4.60;;;32.20;75.50;;;;;;5031976;28;20068;-59
2022/06/29 11:02:48;;;;;;;8.02;4.80;;;32.50;76.30;;;;;;5033398;28;20053;-59
2022/06/29 11:05:14;;;;;;;4.88;4.47;;;32.30;76.30;;;;;;5033097;28;20025;-59
2022/06/29 11:13:29;;;;;;;8.07;5.30;;;32.60;76.20;;;;;;5032900;28;20052;-52
2022/06/29 11:15:56;;;;;;;4.85;4.45;;;31.80;77.20;;;;;;5031882;28;20025;-55
2022/06/29 11:18:29;;;;;;;10.48;4.63;;;31.60;77.80;;;;;;5033173;28;20017;-54
2022/06/29 11:21:02;;;;;;;5.32;4.45;;;31.80;78.80;;;;;;5033229;28;20021;-53
2022/06/29 11:23:30;;;;;;;7.90;4.85;;;32.10;78.60;;;;;;5035486;28;20025;-55
2022/06/29 11:25:57;;;;;;;5.10;4.68;;;32.40;77.40;;;;;;5035533;28;20021;-55
2022/06/29 11:32:00;;;;;;;5.75;5.25;;;32.70;77.50;;;;;;5036682;28;20080;-54
2022/06/29 11:34:25;;;;;;;5.45;4.28;;;32.60;78.70;;;;;;5035300;28;20026;-55
2022/06/29 11:36:51;;;;;;;5.72;5.22;;;32.50;79.50;;;;;;5035470;28;20025;-53
2022/06/29 11:39:17;;;;;;;7.18;4.80;;;32.40;78.50;;;;;;5035594;28;20025;-54
2022/06/29 11:44:35;;;;;;;7.13;4.65;;;32.40;78.40;;;;;;5036841;28;20098;-52
2022/06/29 11:47:01;;;;;;;7.85;4.97;;;32.50;78.10;;;;;;5035026;28;20025;-52
2022/06/29 11:49:38;;;;;;;7.25;5.13;;;32.70;78.80;;;;;;5035065;28;20037;-54
2022/06/29 11:52:08;;;;;;;8.02;5.38;;;32.70;79.50;;;;;;5035249;28;20032;-54
2022/06/29 11:54:38;;;;;;;5.23;4.83;;;32.50;79.40;;;;;;5034926;28;20029;-53
2022/06/29 11:57:08;;;;;;;5.72;5.07;;;31.70;79.20;;;;;;5034931;28;20283;-52
2022/06/29 11:59:34;;;;;;;;;;;31.50;80.70;;;;;;5036675;28;20083;-52
2022/06/29 12:02:00;;;;;;;5.68;4.88;;;30.90;81.60;;;;;;5034827;28;19909;-54
2022/06/29 12:04:31;;;;;;;5.70;4.38;;;30.60;82.30;;;;;;5034737;28;20144;-53
2022/06/29 12:07:10;;;;;;;5.50;5.00;;;30.70;82.90;;;;;;5034786;28;20033;-54
2022/06/29 12:09:37;;;;;;;6.07;4.38;;;30.80;84.30;;;;;;5035976;28;20091;-56
2022/06/29 12:12:05;;;;;;;5.20;4.80;;;30.90;86.20;;;;;;5034680;28;20061;-57
2022/06/29 12:14:30;;;;;;;5.88;5.20;;;31.10;84.30;;;;;;5034585;28;20021;-53
2022/06/29 12:16:56;;;;;;;7.15;5.28;;;31.30;84.10;;;;;;5035790;28;20018;-57
2022/06/29 12:19:22;;;;;;;10.40;5.32;;;31.40;83.50;;;;;;5034417;28;20492;-55
2022/06/29 12:21:48;;;;;;;5.50;5.00;;;31.30;83.20;;;;;;5034322;28;20022;-55
2022/06/29 12:24:15;;;;;;;5.75;5.18;;;31.40;83.50;;;;;;5034570;28;20025;-56
2022/06/29 12:26:41;;;;;;;5.40;4.80;;;31.30;83.80;;;;;;5035155;28;20028;-52
2022/06/29 12:29:07;;;;;;;5.53;4.72;;;31.40;85.10;;;;;;5034224;28;20026;-56
2022/06/29 12:31:34;;;;;;;6.10;5.30;;;31.40;83.00;;;;;;5035474;28;20085;-56
2022/06/29 12:34:00;;;;;;;7.18;5.22;;;31.40;83.60;;;;;;5034606;28;20106;-54
2022/06/29 12:36:25;;;;;;;8.00;5.05;;;31.40;84.30;;;;;;5035327;28;20021;-56
2022/06/29 12:38:51;;;;;;;5.35;4.85;;;31.40;84.30;;;;;;5035242;28;20104;-55
2022/06/29 12:41:16;;;;;;;5.68;5.07;;;31.40;83.70;;;;;;5035177;28;20057;-53
2022/06/29 12:43:42;;;;;;;5.38;4.82;;;31.50;83.10;;;;;;5035513;28;20025;-51
2022/06/29 12:46:08;;;;;;;6.47;4.65;;;31.50;82.90;;;;;;5034009;28;20112;-55
2022/06/29 12:48:33;;;;;;;6.20;4.68;;;31.60;83.10;;;;;;5033960;28;20384;-54
2022/06/29 12:50:59;;;;;;;5.35;4.47;;;31.70;81.00;;;;;;5034655;28;20022;-56
2022/06/29 12:53:26;;;;;;;5.22;4.38;;;31.70;82.00;;;;;;5033742;28;20125;-55
2022/06/29 12:55:51;;;;;;;6.18;4.82;;;31.80;82.10;;;;;;5033784;28;20029;-53
2022/06/29 12:58:17;;;;;;;4.50;4.10;;;31.80;81.60;;;;;;5034886;28;20083;-52
2022/06/29 13:00:42;;;;;;;8.57;6.03;;;31.80;82.50;;;;;;5034276;28;20028;-52
2022/06/29 13:03:08;;;;;;;5.63;4.60;;;31.90;81.90;;;;;;5033609;28;20095;-54
2022/06/29 13:05:35;;;;;;;5.28;4.57;;;31.90;81.90;;;;;;5035169;28;20025;-53